createdAt,value
2022-08-17T00:03:51.051Z,0.00
2022-08-17T00:06:50.834Z,0.00
2022-08-17T00:14:51.511Z,0.00
2022-08-17T00:22:50.154Z,0.00
2022-08-17T00:26:49.297Z,0.00
2022-08-17T00:27:49.261Z,0.00
2022-08-17T00:29:49.781Z,0.00
2022-08-17T00:33:16.083Z,0.00
2022-08-17T00:33:49.009Z,0.00
2022-08-17T00:34:48.738Z,0.00
2022-08-17T00:36:48.628Z,0.00
2022-08-17T00:37:48.513Z,0.00
2022-08-17T00:38:48.943Z,0.00
2022-08-17T00:39:48.441Z,0.00
2022-08-17T00:40:48.452Z,0.00
2022-08-17T00:42:48.206Z,0.00
2022-08-17T00:43:48.267Z,0.00
2022-08-17T00:53:47.312Z,0.00
2022-08-17T00:54:47.204Z,0.00
2022-08-17T00:55:47.132Z,0.00
2022-08-17T00:56:47.055Z,0.00
2022-08-17T00:57:46.980Z,0.00
2022-08-17T00:58:46.913Z,0.00
2022-08-17T00:59:46.831Z,0.00
2022-08-17T01:00:46.808Z,0.00
2022-08-17T01:01:46.759Z,0.00
2022-08-17T01:02:46.845Z,0.00
2022-08-17T01:03:47.283Z,0.00
2022-08-17T01:04:46.799Z,0.00
2022-08-17T01:07:46.268Z,0.00
2022-08-17T01:23:45.235Z,0.00
2022-08-17T01:24:45.972Z,0.00
2022-08-17T01:29:45.227Z,0.00
2022-08-17T01:31:44.682Z,0.00
2022-08-17T01:37:45.305Z,0.00
2022-08-17T02:25:00.815Z,0.00
2022-08-17T03:02:37.641Z,0.00
2022-08-17T04:13:32.313Z,0.00
2022-08-17T04:14:32.249Z,0.00
2022-08-17T04:15:32.129Z,0.00
2022-08-17T04:16:32.050Z,0.00
2022-08-17T04:17:31.975Z,5.63
2022-08-17T04:18:31.903Z,5.63
2022-08-17T04:19:31.825Z,5.63
2022-08-17T04:20:31.751Z,5.63
2022-08-17T04:21:31.674Z,5.63
2022-08-17T04:22:34.345Z,5.63
2022-08-17T04:23:31.529Z,5.63
2022-08-17T04:24:31.450Z,5.63
2022-08-17T04:25:31.373Z,5.63
2022-08-17T04:26:54.134Z,5.63
2022-08-17T04:27:31.223Z,5.63
2022-08-17T04:30:31.237Z,11.25
2022-08-17T04:31:31.170Z,11.25
2022-08-17T04:33:31.212Z,11.25
2022-08-17T04:35:30.660Z,11.25
2022-08-17T04:40:30.694Z,16.88
2022-08-17T04:41:30.610Z,16.88
2022-08-17T04:42:30.442Z,16.88
2022-08-17T04:45:32.130Z,16.88
2022-08-17T04:53:29.996Z,22.50
2022-08-17T04:57:29.413Z,22.50
2022-08-17T04:58:29.139Z,28.13
2022-08-17T04:59:28.857Z,28.13
2022-08-17T05:01:28.777Z,28.13
2022-08-17T05:02:29.343Z,28.13
2022-08-17T05:06:28.332Z,28.13
2022-08-17T05:17:27.705Z,61.88
2022-08-17T05:20:27.278Z,56.25
2022-08-17T05:23:27.258Z,61.88
2022-08-17T05:24:43.060Z,67.50
2022-08-17T05:26:29.336Z,73.13
2022-08-17T05:34:26.639Z,95.63
2022-08-17T05:35:26.870Z,101.25
2022-08-17T05:36:42.949Z,106.88
2022-08-17T05:40:26.906Z,118.13
2022-08-17T05:41:27.938Z,118.13
2022-08-17T05:45:54.153Z,140.63
2022-08-17T05:46:25.545Z,140.63
2022-08-17T05:47:25.271Z,151.88
2022-08-17T05:48:39.786Z,151.88
2022-08-17T05:49:25.121Z,157.50
2022-08-17T05:50:27.147Z,157.50
2022-08-17T05:51:24.983Z,151.88
2022-08-17T05:53:24.791Z,146.25
2022-08-17T05:55:25.193Z,151.88
2022-08-17T05:56:29.629Z,146.25
2022-08-17T05:57:24.534Z,146.25
2022-08-17T05:58:24.462Z,151.88
2022-08-17T05:59:24.389Z,146.25
2022-08-17T06:01:24.327Z,140.63
2022-08-17T06:02:24.676Z,135.00
2022-08-17T06:03:24.097Z,129.38
2022-08-17T06:04:23.986Z,129.38
2022-08-17T06:05:23.952Z,123.75
2022-08-17T06:06:25.227Z,123.75
2022-08-17T06:08:23.725Z,135.00
2022-08-17T06:09:28.853Z,135.00
2022-08-17T06:10:23.751Z,140.63
2022-08-17T06:11:23.622Z,151.88
2022-08-17T06:12:23.453Z,157.50
2022-08-17T06:13:23.332Z,157.50
2022-08-17T06:14:23.259Z,163.13
2022-08-17T06:15:23.187Z,163.13
2022-08-17T06:16:33.891Z,157.50
2022-08-17T06:17:23.244Z,151.88
2022-08-17T06:18:22.969Z,157.50
2022-08-17T06:19:22.897Z,163.13
2022-08-17T06:20:22.825Z,163.13
2022-08-17T06:21:23.779Z,163.13
2022-08-17T06:22:22.682Z,163.13
2022-08-17T06:23:22.609Z,163.13
2022-08-17T06:24:22.551Z,163.13
2022-08-17T06:25:22.667Z,157.50
2022-08-17T06:26:25.835Z,157.50
2022-08-17T06:27:22.321Z,151.88
2022-08-17T06:28:22.248Z,146.25
2022-08-17T06:34:21.817Z,129.38
2022-08-17T06:35:21.977Z,129.38
2022-08-17T06:43:21.168Z,146.25
2022-08-17T06:44:43.262Z,157.50
2022-08-17T06:45:21.022Z,174.38
2022-08-17T06:46:20.951Z,174.38
2022-08-17T06:47:28.179Z,168.75
2022-08-17T06:48:20.811Z,168.75
2022-08-17T06:49:23.356Z,185.63
2022-08-17T06:50:20.665Z,191.25
2022-08-17T06:51:20.593Z,191.25
2022-08-17T06:52:45.946Z,191.25
2022-08-17T06:53:20.448Z,191.25
2022-08-17T06:54:20.375Z,191.25
2022-08-17T06:55:20.319Z,185.63
2022-08-17T06:56:20.232Z,174.38
2022-08-17T06:57:20.167Z,168.75
2022-08-17T06:58:20.091Z,163.13
2022-08-17T06:59:20.022Z,163.13
2022-08-17T07:00:19.983Z,168.75
2022-08-17T07:01:20.992Z,180.00
2022-08-17T07:02:29.198Z,191.25
2022-08-17T07:03:19.734Z,196.88
2022-08-17T07:04:19.660Z,191.25
2022-08-17T07:05:19.589Z,185.63
2022-08-17T07:06:19.517Z,191.25
2022-08-17T07:07:19.448Z,196.88
2022-08-17T07:08:19.374Z,208.13
2022-08-17T07:09:19.306Z,213.75
2022-08-17T07:10:19.533Z,225.00
2022-08-17T07:11:19.164Z,236.25
2022-08-17T07:12:19.091Z,253.13
2022-08-17T07:13:19.022Z,264.38
2022-08-17T07:14:18.952Z,270.00
2022-08-17T07:15:18.878Z,270.00
2022-08-17T07:17:01.296Z,275.63
2022-08-17T07:18:01.454Z,270.00
2022-08-17T07:19:01.150Z,270.00
2022-08-17T07:20:01.080Z,258.75
2022-08-17T07:21:01.009Z,253.13
2022-08-17T07:22:00.937Z,247.50
2022-08-17T07:23:43.353Z,225.00
2022-08-17T07:24:43.291Z,219.38
2022-08-17T07:25:45.875Z,213.75
2022-08-17T07:26:43.379Z,213.75
2022-08-17T07:27:44.050Z,219.38
2022-08-17T07:31:54.284Z,253.13
2022-08-17T07:32:54.419Z,264.38
2022-08-17T07:33:57.943Z,264.38
2022-08-17T07:34:54.038Z,258.75
2022-08-17T07:35:53.972Z,253.13
2022-08-17T07:36:53.894Z,241.88
2022-08-17T07:37:53.823Z,236.25
2022-08-17T07:38:53.752Z,225.00
2022-08-17T07:40:15.609Z,225.00
2022-08-17T07:40:53.611Z,225.00
2022-08-17T07:41:59.261Z,241.88
2022-08-17T07:45:03.476Z,281.25
2022-08-17T07:46:03.406Z,298.13
2022-08-17T07:47:03.332Z,309.38
2022-08-17T07:48:03.264Z,315.00
2022-08-17T07:49:03.195Z,309.38
2022-08-17T07:50:03.122Z,303.75
2022-08-17T07:51:03.050Z,292.50
2022-08-17T07:52:47.492Z,275.63
2022-08-17T07:53:02.907Z,258.75
2022-08-17T07:54:14.114Z,241.88
2022-08-17T07:56:34.413Z,230.63
2022-08-17T07:58:12.703Z,225.00
2022-08-17T07:59:12.674Z,219.38
2022-08-17T08:00:12.779Z,225.00
2022-08-17T08:01:12.891Z,230.63
2022-08-17T08:02:13.672Z,241.88
2022-08-17T08:03:12.352Z,247.50
2022-08-17T08:04:15.212Z,253.13
2022-08-17T08:05:12.212Z,258.75
2022-08-17T08:06:54.626Z,253.13
2022-08-17T08:07:54.556Z,241.88
2022-08-17T08:08:54.486Z,230.63
2022-08-17T08:09:54.416Z,230.63
2022-08-17T08:10:54.345Z,236.25
2022-08-17T08:11:54.276Z,258.75
2022-08-17T08:12:54.206Z,275.63
2022-08-17T08:13:54.136Z,286.88
2022-08-17T08:15:36.553Z,286.88
2022-08-17T08:16:36.482Z,292.50
2022-08-17T08:17:37.019Z,292.50
2022-08-17T08:18:53.405Z,303.75
2022-08-17T08:19:36.269Z,303.75
2022-08-17T08:20:52.266Z,303.75
2022-08-17T08:21:36.131Z,298.13
2022-08-17T08:22:36.060Z,298.13
2022-08-17T08:23:35.990Z,286.88
2022-08-17T08:24:35.972Z,275.63
2022-08-17T08:25:35.849Z,258.75
2022-08-17T08:26:35.776Z,241.88
2022-08-17T08:27:35.709Z,219.38
2022-08-17T08:28:35.637Z,208.13
2022-08-17T08:29:35.569Z,196.88
2022-08-17T08:30:35.498Z,185.63
2022-08-17T08:31:40.193Z,174.38
2022-08-17T08:32:35.357Z,163.13
2022-08-17T08:33:35.288Z,151.88
2022-08-17T08:34:54.762Z,146.25
2022-08-17T08:35:35.145Z,140.63
2022-08-17T08:36:56.857Z,135.00
2022-08-17T08:37:39.214Z,135.00
2022-08-17T08:38:35.086Z,135.00
2022-08-17T08:39:34.911Z,135.00
2022-08-17T08:40:34.796Z,135.00
2022-08-17T08:41:34.722Z,146.25
2022-08-17T08:42:34.652Z,151.88
2022-08-17T08:43:34.601Z,157.50
2022-08-17T08:45:00.086Z,163.13
2022-08-17T08:45:34.443Z,163.13
2022-08-17T08:46:34.371Z,168.75
2022-08-17T08:47:35.463Z,168.75
2022-08-17T08:48:53.086Z,168.75
2022-08-17T08:50:01.989Z,180.00
2022-08-17T08:50:38.017Z,202.50
2022-08-17T08:51:34.017Z,230.63
2022-08-17T08:52:33.954Z,281.25
2022-08-17T08:53:33.879Z,320.63
2022-08-17T08:54:33.808Z,365.63
2022-08-17T08:55:34.077Z,371.25
2022-08-17T08:56:33.666Z,360.00
2022-08-17T08:57:34.600Z,331.88
2022-08-17T08:58:42.107Z,315.00
2022-08-17T08:59:33.456Z,298.13
2022-08-17T09:00:36.410Z,281.25
2022-08-17T09:02:35.818Z,213.75
2022-08-17T09:03:52.414Z,191.25
2022-08-17T09:04:55.922Z,180.00
2022-08-17T09:05:35.608Z,168.75
2022-08-17T09:06:39.261Z,163.13
2022-08-17T09:07:35.480Z,151.88
2022-08-17T09:08:35.448Z,146.25
2022-08-17T09:09:35.328Z,140.63
2022-08-17T09:10:35.258Z,146.25
2022-08-17T09:11:35.190Z,151.88
2022-08-17T09:12:35.120Z,157.50
2022-08-17T09:13:35.049Z,157.50
2022-08-17T09:14:43.080Z,151.88
2022-08-17T09:15:34.905Z,146.25
2022-08-17T09:16:34.836Z,146.25
2022-08-17T09:17:34.766Z,146.25
2022-08-17T09:19:01.474Z,157.50
2022-08-17T09:19:34.627Z,168.75
2022-08-17T09:20:37.782Z,180.00
2022-08-17T09:21:34.487Z,191.25
2022-08-17T09:22:34.423Z,208.13
2022-08-17T09:23:34.346Z,213.75
2022-08-17T09:24:34.273Z,219.38
2022-08-17T09:25:34.206Z,225.00
2022-08-17T09:26:34.137Z,225.00
2022-08-17T09:27:34.067Z,219.38
2022-08-17T09:28:33.995Z,202.50
2022-08-17T09:29:33.926Z,185.63
2022-08-17T09:30:33.860Z,174.38
2022-08-17T09:34:47.057Z,185.63
2022-08-17T09:35:44.559Z,191.25
2022-08-17T09:36:44.521Z,185.63
2022-08-17T09:37:44.452Z,180.00
2022-08-17T09:38:44.382Z,180.00
2022-08-17T09:39:44.698Z,174.38
2022-08-17T09:40:44.216Z,163.13
2022-08-17T09:41:48.921Z,157.50
2022-08-17T09:42:44.068Z,151.88
2022-08-17T09:43:44.001Z,157.50
2022-08-17T09:44:43.962Z,157.50
2022-08-17T09:45:43.893Z,157.50
2022-08-17T09:46:44.129Z,157.50
2022-08-17T09:47:43.769Z,163.13
2022-08-17T09:48:43.681Z,163.13
2022-08-17T09:49:43.598Z,168.75
2022-08-17T09:51:03.355Z,174.38
2022-08-17T09:52:43.570Z,180.00
2022-08-17T09:53:44.767Z,180.00
2022-08-17T09:54:44.463Z,180.00
2022-08-17T09:55:43.158Z,174.38
2022-08-17T09:56:46.962Z,180.00
2022-08-17T09:57:43.015Z,196.88
2022-08-17T09:58:42.946Z,208.13
2022-08-17T09:59:42.877Z,202.50
2022-08-17T10:00:43.183Z,202.50
2022-08-17T10:01:42.822Z,219.38
2022-08-17T10:02:42.665Z,247.50
2022-08-17T10:03:42.595Z,258.75
2022-08-17T10:04:42.526Z,270.00
2022-08-17T10:05:42.459Z,275.63
2022-08-17T10:06:42.386Z,298.13
2022-08-17T10:07:42.316Z,315.00
2022-08-17T10:08:42.248Z,343.13
2022-08-17T10:09:42.175Z,365.63
2022-08-17T10:10:42.107Z,382.50
2022-08-17T10:11:44.844Z,399.38
2022-08-17T10:12:43.143Z,405.00
2022-08-17T10:13:41.893Z,421.88
2022-08-17T10:14:43.560Z,421.88
2022-08-17T10:15:42.730Z,405.00
2022-08-17T10:16:41.784Z,376.88
2022-08-17T10:17:41.613Z,360.00
2022-08-17T10:18:41.545Z,348.75
2022-08-17T10:19:43.919Z,348.75
2022-08-17T10:20:41.404Z,348.75
2022-08-17T10:21:41.336Z,354.38
2022-08-17T10:22:41.265Z,348.75
2022-08-17T10:23:41.203Z,343.13
2022-08-17T10:24:41.125Z,343.13
2022-08-17T10:25:55.802Z,343.13
2022-08-17T10:27:58.513Z,315.00
2022-08-17T10:28:58.432Z,281.25
2022-08-17T10:30:00.996Z,264.38
2022-08-17T10:31:23.405Z,236.25
2022-08-17T10:31:58.221Z,219.38
2022-08-17T10:32:58.154Z,202.50
2022-08-17T10:33:58.086Z,196.88
2022-08-17T10:34:58.016Z,191.25
2022-08-17T10:35:57.946Z,191.25
2022-08-17T10:36:57.875Z,202.50
2022-08-17T10:37:57.806Z,213.75
2022-08-17T10:38:57.737Z,236.25
2022-08-17T10:39:57.706Z,264.38
2022-08-17T10:40:57.597Z,286.88
2022-08-17T10:41:57.538Z,303.75
2022-08-17T10:42:57.460Z,315.00
2022-08-17T10:44:37.573Z,309.38
2022-08-17T10:44:57.321Z,286.88
2022-08-17T10:46:10.718Z,264.38
2022-08-17T10:46:57.180Z,247.50
2022-08-17T10:48:00.110Z,236.25
2022-08-17T10:48:57.047Z,230.63
2022-08-17T10:49:56.972Z,213.75
2022-08-17T10:50:56.903Z,208.13
2022-08-17T10:51:57.141Z,208.13
2022-08-17T10:52:56.762Z,219.38
2022-08-17T10:53:56.693Z,230.63
2022-08-17T10:54:58.352Z,225.00
2022-08-17T10:55:56.588Z,208.13
2022-08-17T10:56:56.521Z,191.25
2022-08-17T10:57:56.754Z,185.63
2022-08-17T10:58:56.381Z,180.00
2022-08-17T10:59:56.507Z,174.38
2022-08-17T11:00:56.272Z,180.00
2022-08-17T11:01:56.172Z,185.63
2022-08-17T11:02:56.103Z,191.25
2022-08-17T11:03:55.991Z,196.88
2022-08-17T11:04:55.922Z,219.38
2022-08-17T11:05:55.853Z,236.25
2022-08-17T11:06:55.785Z,230.63
2022-08-17T11:07:55.714Z,230.63
2022-08-17T11:08:55.646Z,236.25
2022-08-17T11:09:55.573Z,230.63
2022-08-17T11:10:55.506Z,219.38
2022-08-17T11:11:55.434Z,219.38
2022-08-17T11:12:55.368Z,219.38
2022-08-17T11:13:55.300Z,213.75
2022-08-17T11:14:55.225Z,202.50
2022-08-17T11:15:59.028Z,202.50
2022-08-17T11:16:55.088Z,202.50
2022-08-17T11:17:55.016Z,202.50
2022-08-17T11:18:54.951Z,213.75
2022-08-17T11:19:54.877Z,225.00
2022-08-17T11:20:54.806Z,230.63
2022-08-17T11:21:54.737Z,241.88
2022-08-17T11:22:54.669Z,230.63
2022-08-17T11:23:54.597Z,230.63
2022-08-17T11:24:54.530Z,225.00
2022-08-17T11:25:54.508Z,219.38
2022-08-17T11:26:54.392Z,219.38
2022-08-17T11:27:54.324Z,219.38
2022-08-17T11:28:54.249Z,219.38
2022-08-17T11:29:58.063Z,213.75
2022-08-17T11:30:54.264Z,213.75
2022-08-17T11:31:54.040Z,213.75
2022-08-17T11:32:54.937Z,208.13
2022-08-17T11:33:53.902Z,208.13
2022-08-17T11:34:53.831Z,208.13
2022-08-17T11:35:53.757Z,213.75
2022-08-17T11:36:53.690Z,219.38
2022-08-17T11:37:53.619Z,219.38
2022-08-17T11:38:53.549Z,219.38
2022-08-17T11:39:53.590Z,219.38
2022-08-17T11:40:53.410Z,219.38
2022-08-17T11:41:53.340Z,230.63
2022-08-17T11:42:53.272Z,230.63
2022-08-17T11:43:53.200Z,230.63
2022-08-17T11:44:53.130Z,236.25
2022-08-17T11:45:53.060Z,241.88
2022-08-17T11:46:52.994Z,253.13
2022-08-17T11:48:09.465Z,264.38
2022-08-17T11:48:52.862Z,270.00
2022-08-17T11:49:52.782Z,281.25
2022-08-17T11:50:52.711Z,303.75
2022-08-17T11:51:52.640Z,315.00
2022-08-17T11:52:52.571Z,326.25
2022-08-17T11:54:08.691Z,337.50
2022-08-17T11:54:52.430Z,365.63
2022-08-17T11:55:52.360Z,405.00
2022-08-17T11:56:52.293Z,466.88
2022-08-17T11:57:52.381Z,528.75
2022-08-17T11:58:52.159Z,590.63
2022-08-17T11:59:52.084Z,624.38
2022-08-17T12:00:52.017Z,663.75
2022-08-17T12:01:51.949Z,703.13
2022-08-17T12:02:51.874Z,680.63
2022-08-17T12:03:54.384Z,708.75
2022-08-17T12:04:51.832Z,793.13
2022-08-17T12:06:39.157Z,1108.13
2022-08-17T12:07:39.089Z,1006.88
2022-08-17T12:08:39.017Z,1108.13
2022-08-17T12:09:38.953Z,928.13
2022-08-17T12:10:38.879Z,849.38
2022-08-17T12:11:58.616Z,753.75
2022-08-17T12:12:38.740Z,725.63
2022-08-17T12:13:39.817Z,832.50
2022-08-17T12:15:08.469Z,1164.38
2022-08-17T12:15:38.538Z,1001.25
2022-08-17T12:16:38.469Z,742.50
2022-08-17T12:17:41.271Z,658.13
2022-08-17T12:18:38.329Z,641.25
2022-08-17T12:19:38.461Z,641.25
2022-08-17T12:20:38.191Z,703.13
2022-08-17T12:21:38.131Z,793.13
2022-08-17T12:22:38.056Z,1783.13
2022-08-17T12:23:37.986Z,1839.38
2022-08-17T12:24:37.916Z,1141.88
2022-08-17T12:25:37.852Z,1423.13
2022-08-17T12:26:37.780Z,1170.00
2022-08-17T12:28:04.497Z,1575.00
2022-08-17T12:28:37.640Z,911.25
2022-08-17T12:29:38.711Z,742.50
2022-08-17T12:30:37.535Z,630.00
2022-08-17T12:32:25.214Z,540.00
2022-08-17T12:33:28.431Z,506.25
2022-08-17T12:34:25.077Z,483.75
2022-08-17T12:35:25.015Z,495.00
2022-08-17T12:36:24.942Z,506.25
2022-08-17T12:37:24.875Z,506.25
2022-08-17T12:39:14.287Z,511.88
2022-08-17T12:40:07.384Z,523.13
2022-08-17T12:41:07.161Z,545.63
2022-08-17T12:42:07.124Z,556.88
2022-08-17T12:43:07.053Z,607.50
2022-08-17T12:44:06.953Z,517.50
2022-08-17T12:45:07.085Z,489.38
2022-08-17T12:46:14.849Z,450.00
2022-08-17T12:47:06.744Z,444.38
2022-08-17T12:48:06.682Z,421.88
2022-08-17T12:49:06.606Z,399.38
2022-08-17T12:50:06.536Z,371.25
2022-08-17T12:51:06.470Z,376.88
2022-08-17T12:52:06.402Z,399.38
2022-08-17T12:53:06.330Z,427.50
2022-08-17T12:54:06.267Z,444.38
2022-08-17T12:55:06.196Z,489.38
2022-08-17T12:56:06.127Z,562.50
2022-08-17T12:57:06.055Z,601.88
2022-08-17T12:58:05.984Z,753.75
2022-08-17T12:59:05.915Z,939.38
2022-08-17T13:00:05.845Z,3076.88
2022-08-17T13:01:05.777Z,1861.88
2022-08-17T13:02:05.755Z,900.00
2022-08-17T13:03:05.640Z,675.00
2022-08-17T13:04:05.572Z,618.75
2022-08-17T13:05:05.653Z,613.13
2022-08-17T13:06:05.435Z,528.75
2022-08-17T13:07:05.367Z,483.75
2022-08-17T13:08:05.297Z,478.13
2022-08-17T13:09:05.228Z,506.25
2022-08-17T13:10:05.346Z,562.50
2022-08-17T13:11:05.091Z,646.88
2022-08-17T13:12:05.239Z,798.75
2022-08-17T13:13:05.011Z,821.25
2022-08-17T13:14:04.886Z,787.50
2022-08-17T13:15:04.821Z,748.13
2022-08-17T13:16:04.750Z,793.13
2022-08-17T13:17:08.394Z,950.63
2022-08-17T13:18:04.613Z,815.63
2022-08-17T13:19:04.545Z,663.75
2022-08-17T13:20:04.527Z,568.13
2022-08-17T13:21:04.410Z,523.13
2022-08-17T13:22:04.413Z,500.63
2022-08-17T13:23:07.607Z,489.38
2022-08-17T13:24:04.206Z,483.75
2022-08-17T13:25:04.138Z,483.75
2022-08-17T13:26:04.069Z,489.38
2022-08-17T13:27:08.400Z,478.13
2022-08-17T13:28:03.932Z,466.88
2022-08-17T13:29:03.866Z,444.38
2022-08-17T13:30:03.850Z,421.88
2022-08-17T13:31:03.730Z,421.88
2022-08-17T13:32:04.685Z,427.50
2022-08-17T13:33:04.692Z,433.13
2022-08-17T13:34:03.531Z,438.75
2022-08-17T13:35:16.257Z,427.50
2022-08-17T13:36:03.386Z,416.25
2022-08-17T13:37:03.321Z,399.38
2022-08-17T13:38:03.253Z,388.13
2022-08-17T13:39:03.192Z,399.38
2022-08-17T13:40:03.212Z,405.00
2022-08-17T13:41:03.049Z,410.63
2022-08-17T13:42:02.978Z,427.50
2022-08-17T13:43:02.911Z,466.88
2022-08-17T13:44:02.843Z,517.50
2022-08-17T13:45:02.774Z,579.38
2022-08-17T13:46:02.706Z,652.50
2022-08-17T13:47:02.637Z,855.00
2022-08-17T13:48:02.573Z,1231.88
2022-08-17T13:49:02.505Z,787.50
2022-08-17T13:50:02.597Z,714.38
2022-08-17T13:51:02.367Z,675.00
2022-08-17T13:52:02.310Z,630.00
2022-08-17T13:53:02.229Z,613.13
2022-08-17T13:54:02.164Z,618.75
2022-08-17T13:55:02.095Z,635.63
2022-08-17T13:56:02.029Z,725.63
2022-08-17T13:57:01.961Z,725.63
2022-08-17T13:58:06.810Z,652.50
2022-08-17T13:59:01.821Z,618.75
2022-08-17T14:00:01.795Z,596.25
2022-08-17T14:01:01.716Z,585.00
2022-08-17T14:14:46.598Z,2790.00
2022-08-17T14:15:54.928Z,2683.13
2022-08-17T14:16:46.471Z,2497.50
2022-08-17T14:17:46.416Z,2660.63
2022-08-17T14:18:56.891Z,2649.38
2022-08-17T14:19:46.283Z,2480.63
2022-08-17T14:20:46.219Z,2356.88
2022-08-17T14:21:46.157Z,2120.63
2022-08-17T14:23:54.251Z,2199.38
2022-08-17T14:24:45.975Z,2070.00
2022-08-17T14:25:45.912Z,1766.25
2022-08-17T14:26:45.850Z,1198.13
2022-08-17T14:27:52.751Z,1293.75
2022-08-17T14:28:54.674Z,1063.13
2022-08-17T14:29:45.667Z,1271.25
2022-08-17T14:30:45.604Z,1074.38
2022-08-17T14:31:52.177Z,1366.88
2022-08-17T14:32:45.482Z,1755.00
2022-08-17T14:33:45.571Z,1974.38
2022-08-17T14:34:45.361Z,2250.00
2022-08-17T14:35:45.298Z,2278.13
2022-08-17T14:36:48.177Z,2407.50
2022-08-17T14:37:45.222Z,2430.00
2022-08-17T14:38:45.113Z,2396.25
2022-08-17T14:39:45.125Z,2452.50
2022-08-17T14:40:44.991Z,2475.00
2022-08-17T14:41:44.934Z,2441.25
2022-08-17T14:42:45.973Z,2345.63
2022-08-17T14:43:44.811Z,2126.25
2022-08-17T14:44:44.751Z,2525.63
2022-08-17T14:45:44.690Z,2536.88
2022-08-17T14:46:44.629Z,2581.88
2022-08-17T14:47:44.608Z,2503.13
2022-08-17T14:48:44.512Z,2396.25
2022-08-17T14:49:47.546Z,2103.75
2022-08-17T14:50:44.391Z,2092.50
2022-08-17T14:51:44.792Z,1777.50
2022-08-17T14:52:44.297Z,995.63
2022-08-17T14:53:44.214Z,1153.13
2022-08-17T14:54:45.917Z,1119.38
2022-08-17T14:55:44.143Z,1316.25
2022-08-17T14:56:45.261Z,2030.63
2022-08-17T14:58:26.621Z,1980.00
2022-08-17T14:59:26.560Z,1687.50
2022-08-17T15:01:24.052Z,2182.50
2022-08-17T15:02:30.188Z,2210.63
2022-08-17T15:03:23.887Z,2070.00
2022-08-17T15:04:23.829Z,2188.13
2022-08-17T15:05:23.767Z,2182.50
2022-08-17T15:06:23.706Z,2115.00
2022-08-17T15:07:24.293Z,2058.75
2022-08-17T15:08:23.587Z,1974.38
2022-08-17T15:09:23.526Z,1940.63
2022-08-17T15:10:25.841Z,1878.75
2022-08-17T15:11:23.406Z,1940.63
2022-08-17T15:12:27.484Z,1968.75
2022-08-17T15:13:23.287Z,1968.75
2022-08-17T15:14:23.228Z,1957.50
2022-08-17T15:15:23.317Z,1895.63
2022-08-17T15:22:15.272Z,1760.63
2022-08-17T15:23:15.214Z,1755.00
2022-08-17T15:24:15.151Z,1749.38
2022-08-17T15:25:15.094Z,1743.75
2022-08-17T15:26:15.036Z,1726.88
2022-08-17T15:27:14.975Z,1710.00
2022-08-17T15:28:14.913Z,1653.75
2022-08-17T15:29:14.857Z,1698.75
2022-08-17T15:30:14.797Z,1687.50
2022-08-17T15:31:14.740Z,1569.38
2022-08-17T15:32:14.679Z,1591.88
2022-08-17T15:33:14.653Z,1552.50
2022-08-17T15:34:14.559Z,1490.63
2022-08-17T15:36:49.314Z,1456.88
2022-08-17T15:37:47.114Z,1423.13
2022-08-17T15:38:46.926Z,1490.63
2022-08-17T15:39:46.918Z,1485.00
2022-08-17T15:40:46.806Z,1428.75
2022-08-17T15:41:46.750Z,1473.75
2022-08-17T15:42:46.689Z,1440.00
2022-08-17T15:43:46.630Z,1141.88
2022-08-17T15:44:46.568Z,1006.88
2022-08-17T15:45:54.844Z,821.25
2022-08-17T15:46:46.453Z,871.88
2022-08-17T15:47:47.295Z,826.88
2022-08-17T15:48:46.331Z,770.63
2022-08-17T15:49:46.274Z,776.25
2022-08-17T15:50:46.214Z,810.00
2022-08-17T15:54:19.057Z,894.38
2022-08-17T15:55:11.772Z,900.00
2022-08-17T15:56:11.715Z,770.63
2022-08-17T15:57:11.652Z,731.25
2022-08-17T15:58:11.591Z,652.50
2022-08-17T15:59:11.530Z,630.00
2022-08-17T16:00:11.479Z,624.38
2022-08-17T16:01:18.839Z,601.88
2022-08-17T16:03:01.512Z,680.63
2022-08-17T16:03:45.668Z,697.50
2022-08-17T16:04:30.265Z,703.13
2022-08-17T16:05:11.243Z,703.13
2022-08-17T16:06:11.123Z,703.13
2022-08-17T16:07:11.030Z,675.00
2022-08-17T16:08:11.213Z,669.38
2022-08-17T16:09:10.903Z,658.13
2022-08-17T16:10:14.133Z,545.63
2022-08-17T16:11:10.776Z,534.38
2022-08-17T16:12:10.757Z,511.88
2022-08-17T16:13:17.605Z,511.88
2022-08-17T16:14:10.585Z,489.38
2022-08-17T16:15:10.521Z,427.50
2022-08-17T16:16:10.458Z,393.75
2022-08-17T16:17:38.535Z,388.13
2022-08-17T16:18:10.329Z,371.25
2022-08-17T16:19:10.264Z,360.00
2022-08-17T16:27:45.410Z,360.00
2022-08-17T16:28:45.347Z,348.75
2022-08-17T16:29:45.278Z,343.13
2022-08-17T16:30:45.215Z,348.75
2022-08-17T16:31:45.148Z,354.38
2022-08-17T16:32:45.082Z,348.75
2022-08-17T16:37:07.510Z,354.38
2022-08-17T16:38:07.517Z,348.75
2022-08-17T16:39:07.377Z,337.50
2022-08-17T16:40:07.432Z,331.88
2022-08-17T16:41:07.245Z,320.63
2022-08-17T16:42:07.179Z,315.00
2022-08-17T16:43:07.116Z,303.75
2022-08-17T16:44:07.065Z,292.50
2022-08-17T16:45:06.980Z,286.88
2022-08-17T16:47:06.847Z,275.63
2022-08-17T16:48:06.783Z,270.00
2022-08-17T16:50:07.057Z,258.75
2022-08-17T16:51:06.586Z,253.13
2022-08-17T16:52:06.517Z,253.13
2022-08-17T16:53:06.453Z,253.13
2022-08-17T16:54:06.384Z,247.50
2022-08-17T16:55:06.322Z,241.88
2022-08-17T16:56:06.252Z,241.88
2022-08-17T16:57:06.191Z,236.25
2022-08-17T16:58:06.119Z,236.25
2022-08-17T16:59:30.421Z,230.63
2022-08-17T17:00:06.136Z,225.00
2022-08-17T17:01:05.946Z,219.38
2022-08-17T17:02:05.875Z,219.38
2022-08-17T17:03:05.789Z,219.38
2022-08-17T17:06:06.639Z,213.75
2022-08-17T17:07:05.921Z,202.50
2022-08-17T17:08:05.452Z,196.88
2022-08-17T17:09:05.625Z,191.25
2022-08-17T17:10:06.061Z,185.63
2022-08-17T17:11:09.023Z,180.00
2022-08-17T17:12:05.221Z,174.38
2022-08-17T17:13:05.468Z,168.75
2022-08-17T17:14:05.285Z,168.75
2022-08-17T17:15:05.438Z,168.75
2022-08-17T17:19:04.715Z,157.50
2022-08-17T17:20:04.646Z,157.50
2022-08-17T17:21:04.582Z,157.50
2022-08-17T17:22:05.055Z,151.88
2022-08-17T17:23:04.679Z,151.88
2022-08-17T17:24:04.375Z,146.25
2022-08-17T17:25:04.340Z,151.88
2022-08-17T17:28:04.106Z,140.63
2022-08-17T17:29:04.294Z,140.63
2022-08-17T17:31:46.392Z,129.38
2022-08-17T17:32:46.328Z,129.38
2022-08-17T17:33:46.255Z,123.75
2022-08-17T17:34:50.895Z,123.75
2022-08-17T17:35:46.121Z,123.75
2022-08-17T17:36:46.153Z,118.13
2022-08-17T17:37:45.986Z,118.13
2022-08-17T17:38:45.917Z,112.50
2022-08-17T17:39:46.145Z,106.88
2022-08-17T17:40:45.982Z,106.88
2022-08-17T17:42:45.642Z,95.63
2022-08-17T17:43:45.778Z,90.00
2022-08-17T17:44:45.508Z,90.00
2022-08-17T17:45:45.678Z,84.38
2022-08-17T17:49:45.407Z,73.13
2022-08-17T17:52:06.777Z,61.88
2022-08-17T17:52:44.961Z,61.88
2022-08-17T17:53:44.893Z,56.25
2022-08-17T17:54:44.821Z,56.25
2022-08-17T17:56:45.121Z,56.25
2022-08-17T17:58:44.581Z,50.63
2022-08-17T17:59:44.491Z,50.63
2022-08-17T18:00:44.405Z,50.63
2022-08-17T18:01:44.448Z,50.63
2022-08-17T18:02:44.271Z,50.63
2022-08-17T18:03:44.197Z,45.00
2022-08-17T18:04:44.129Z,45.00
2022-08-17T18:05:44.626Z,45.00
2022-08-17T18:06:43.991Z,45.00
2022-08-17T18:07:43.951Z,45.00
2022-08-17T18:08:43.852Z,39.38
2022-08-17T18:09:43.781Z,39.38
2022-08-17T18:10:43.713Z,39.38
2022-08-17T18:11:43.645Z,39.38
2022-08-17T18:12:43.573Z,39.38
2022-08-17T18:13:43.503Z,39.38
2022-08-17T18:14:43.434Z,39.38
2022-08-17T18:15:43.413Z,33.75
2022-08-17T18:16:43.299Z,33.75
2022-08-17T18:17:43.223Z,33.75
2022-08-17T18:18:43.155Z,33.75
2022-08-17T18:19:43.086Z,28.13
2022-08-17T18:20:53.292Z,28.13
2022-08-17T18:21:42.945Z,28.13
2022-08-17T18:22:42.875Z,28.13
2022-08-17T18:23:42.804Z,22.50
2022-08-17T18:24:42.734Z,22.50
2022-08-17T18:25:42.667Z,22.50
2022-08-17T18:26:44.954Z,16.88